sensor_id;sensor_type;location;lat;lon;timestamp;P1;durP1;ratioP1;P2;durP2;ratioP2
71253;SDS011;59019;47.638;18.966;2023-05-24T00:00:39;11.30;;;5.77;;
71253;SDS011;59019;47.638;18.966;2023-05-24T00:03:06;9.55;;;5.25;;
71253;SDS011;59019;47.638;18.966;2023-05-24T00:05:31;9.17;;;5.60;;
71253;SDS011;59019;47.638;18.966;2023-05-24T00:07:57;11.55;;;5.72;;
71253;SDS011;59019;47.638;18.966;2023-05-24T00:10:24;11.80;;;5.32;;
71253;SDS011;59019;47.638;18.966;2023-05-24T00:12:50;10.07;;;5.93;;
71253;SDS011;59019;47.638;18.966;2023-05-24T00:15:15;10.17;;;5.37;;
71253;SDS011;59019;47.638;18.966;2023-05-24T00:17:41;10.10;;;5.83;;
71253;SDS011;59019;47.638;18.966;2023-05-24T00:20:07;9.30;;;5.47;;
71253;SDS011;59019;47.638;18.966;2023-05-24T00:22:36;9.40;;;5.30;;
71253;SDS011;59019;47.638;18.966;2023-05-24T00:25:02;9.50;;;5.20;;
71253;SDS011;59019;47.638;18.966;2023-05-24T00:27:27;13.45;;;5.88;;
71253;SDS011;59019;47.638;18.966;2023-05-24T00:29:53;9.77;;;5.17;;
71253;SDS011;59019;47.638;18.966;2023-05-24T00:32:18;9.90;;;5.20;;
71253;SDS011;59019;47.638;18.966;2023-05-24T00:34:44;10.63;;;5.38;;
71253;SDS011;59019;47.638;18.966;2023-05-24T00:37:09;9.53;;;4.80;;
71253;SDS011;59019;47.638;18.966;2023-05-24T00:39:36;10.88;;;5.28;;
71253;SDS011;59019;47.638;18.966;2023-05-24T00:42:02;10.83;;;5.53;;
71253;SDS011;59019;47.638;18.966;2023-05-24T00:44:28;10.40;;;5.90;;
71253;SDS011;59019;47.638;18.966;2023-05-24T00:46:54;11.15;;;5.25;;
71253;SDS011;59019;47.638;18.966;2023-05-24T00:49:20;10.13;;;5.80;;
71253;SDS011;59019;47.638;18.966;2023-05-24T00:51:47;10.13;;;5.93;;
71253;SDS011;59019;47.638;18.966;2023-05-24T00:54:13;10.07;;;5.77;;
71253;SDS011;59019;47.638;18.966;2023-05-24T00:56:39;11.25;;;6.82;;
71253;SDS011;59019;47.638;18.966;2023-05-24T00:59:06;12.55;;;6.63;;
71253;SDS011;59019;47.638;18.966;2023-05-24T01:01:32;10.95;;;5.80;;
71253;SDS011;59019;47.638;18.966;2023-05-24T01:03:57;10.02;;;5.70;;
71253;SDS011;59019;47.638;18.966;2023-05-24T01:06:23;11.00;;;6.00;;
71253;SDS011;59019;47.638;18.966;2023-05-24T01:11:52;10.73;;;6.07;;
71253;SDS011;59019;47.638;18.966;2023-05-24T01:17:35;10.07;;;4.63;;
71253;SDS011;59019;47.638;18.966;2023-05-24T01:20:11;9.52;;;4.50;;
71253;SDS011;59019;47.638;18.966;2023-05-24T01:25:45;9.75;;;5.55;;
71253;SDS011;59019;47.638;18.966;2023-05-24T01:28:16;9.90;;;5.47;;
71253;SDS011;59019;47.638;18.966;2023-05-24T01:30:42;9.63;;;5.73;;
71253;SDS011;59019;47.638;18.966;2023-05-24T01:33:09;10.55;;;5.80;;
71253;SDS011;59019;47.638;18.966;2023-05-24T01:35:35;9.07;;;5.43;;
71253;SDS011;59019;47.638;18.966;2023-05-24T01:38:07;9.80;;;5.65;;
71253;SDS011;59019;47.638;18.966;2023-05-24T01:40:35;9.50;;;5.93;;
71253;SDS011;59019;47.638;18.966;2023-05-24T01:43:03;10.90;;;5.53;;
71253;SDS011;59019;47.638;18.966;2023-05-24T01:45:58;9.32;;;5.25;;
71253;SDS011;59019;47.638;18.966;2023-05-24T01:48:37;9.65;;;5.35;;
71253;SDS011;59019;47.638;18.966;2023-05-24T01:51:50;9.63;;;5.32;;
71253;SDS011;59019;47.638;18.966;2023-05-24T01:54:23;10.35;;;5.82;;
71253;SDS011;59019;47.638;18.966;2023-05-24T01:56:51;12.43;;;5.70;;
71253;SDS011;59019;47.638;18.966;2023-05-24T01:59:18;10.35;;;5.38;;
71253;SDS011;59019;47.638;18.966;2023-05-24T02:01:45;10.60;;;5.50;;
71253;SDS011;59019;47.638;18.966;2023-05-24T02:04:11;10.30;;;5.43;;
71253;SDS011;59019;47.638;18.966;2023-05-24T02:06:37;11.97;;;6.00;;
71253;SDS011;59019;47.638;18.966;2023-05-24T02:09:03;11.13;;;5.95;;
71253;SDS011;59019;47.638;18.966;2023-05-24T02:11:28;9.23;;;5.83;;
71253;SDS011;59019;47.638;18.966;2023-05-24T02:13:54;12.27;;;6.17;;
71253;SDS011;59019;47.638;18.966;2023-05-24T02:16:19;12.00;;;6.13;;
71253;SDS011;59019;47.638;18.966;2023-05-24T02:18:47;10.73;;;6.13;;
71253;SDS011;59019;47.638;18.966;2023-05-24T02:21:14;11.02;;;6.30;;
71253;SDS011;59019;47.638;18.966;2023-05-24T02:23:40;13.05;;;6.88;;
71253;SDS011;59019;47.638;18.966;2023-05-24T02:26:06;11.33;;;6.53;;
71253;SDS011;59019;47.638;18.966;2023-05-24T02:28:35;12.13;;;6.65;;
71253;SDS011;59019;47.638;18.966;2023-05-24T02:31:01;11.30;;;6.22;;
71253;SDS011;59019;47.638;18.966;2023-05-24T02:33:27;15.03;;;7.50;;
71253;SDS011;59019;47.638;18.966;2023-05-24T02:35:54;13.52;;;6.80;;
71253;SDS011;59019;47.638;18.966;2023-05-24T02:38:20;12.18;;;6.82;;
71253;SDS011;59019;47.638;18.966;2023-05-24T02:40:46;13.57;;;7.30;;
71253;SDS011;59019;47.638;18.966;2023-05-24T02:43:11;11.77;;;7.25;;
71253;SDS011;59019;47.638;18.966;2023-05-24T02:45:37;13.33;;;7.03;;
71253;SDS011;59019;47.638;18.966;2023-05-24T02:48:02;12.80;;;7.63;;
71253;SDS011;59019;47.638;18.966;2023-05-24T02:50:28;13.50;;;8.13;;
71253;SDS011;59019;47.638;18.966;2023-05-24T02:52:53;16.87;;;8.93;;
71253;SDS011;59019;47.638;18.966;2023-05-24T02:55:19;13.90;;;8.07;;
71253;SDS011;59019;47.638;18.966;2023-05-24T02:57:45;15.35;;;8.45;;
71253;SDS011;59019;47.638;18.966;2023-05-24T03:00:12;16.45;;;9.63;;
71253;SDS011;59019;47.638;18.966;2023-05-24T03:02:39;17.80;;;10.60;;
71253;SDS011;59019;47.638;18.966;2023-05-24T03:05:07;21.65;;;11.48;;
71253;SDS011;59019;47.638;18.966;2023-05-24T03:07:33;22.85;;;12.60;;
71253;SDS011;59019;47.638;18.966;2023-05-24T03:09:58;21.73;;;12.40;;
71253;SDS011;59019;47.638;18.966;2023-05-24T03:12:24;22.92;;;11.85;;
71253;SDS011;59019;47.638;18.966;2023-05-24T03:14:49;22.40;;;11.50;;
71253;SDS011;59019;47.638;18.966;2023-05-24T03:17:15;23.10;;;12.93;;
71253;SDS011;59019;47.638;18.966;2023-05-24T03:19:41;21.25;;;12.25;;
71253;SDS011;59019;47.638;18.966;2023-05-24T03:22:06;22.33;;;11.90;;
71253;SDS011;59019;47.638;18.966;2023-05-24T03:24:32;21.30;;;11.73;;
71253;SDS011;59019;47.638;18.966;2023-05-24T03:26:58;22.38;;;13.07;;
71253;SDS011;59019;47.638;18.966;2023-05-24T03:29:24;24.13;;;13.00;;
71253;SDS011;59019;47.638;18.966;2023-05-24T03:31:49;24.38;;;12.95;;
71253;SDS011;59019;47.638;18.966;2023-05-24T03:34:15;25.17;;;13.53;;
71253;SDS011;59019;47.638;18.966;2023-05-24T03:36:40;23.07;;;12.80;;
71253;SDS011;59019;47.638;18.966;2023-05-24T03:39:06;27.05;;;14.55;;
71253;SDS011;59019;47.638;18.966;2023-05-24T03:41:32;27.97;;;14.10;;
71253;SDS011;59019;47.638;18.966;2023-05-24T03:43:58;25.00;;;12.80;;
71253;SDS011;59019;47.638;18.966;2023-05-24T03:46:24;26.35;;;13.55;;
71253;SDS011;59019;47.638;18.966;2023-05-24T03:48:50;25.33;;;13.40;;
71253;SDS011;59019;47.638;18.966;2023-05-24T03:51:15;24.37;;;13.17;;
71253;SDS011;59019;47.638;18.966;2023-05-24T03:53:41;22.50;;;13.18;;
71253;SDS011;59019;47.638;18.966;2023-05-24T03:56:06;24.53;;;12.53;;
71253;SDS011;59019;47.638;18.966;2023-05-24T03:58:32;24.43;;;13.27;;
71253;SDS011;59019;47.638;18.966;2023-05-24T04:00:57;22.40;;;13.10;;
71253;SDS011;59019;47.638;18.966;2023-05-24T04:03:23;23.95;;;12.50;;
71253;SDS011;59019;47.638;18.966;2023-05-24T04:05:50;20.77;;;11.53;;
71253;SDS011;59019;47.638;18.966;2023-05-24T04:08:16;19.95;;;11.48;;
71253;SDS011;59019;47.638;18.966;2023-05-24T04:10:41;18.35;;;10.80;;
71253;SDS011;59019;47.638;18.966;2023-05-24T04:13:07;18.27;;;10.40;;
71253;SDS011;59019;47.638;18.966;2023-05-24T04:15:33;15.50;;;9.75;;
71253;SDS011;59019;47.638;18.966;2023-05-24T04:17:58;19.60;;;11.20;;
71253;SDS011;59019;47.638;18.966;2023-05-24T04:20:24;18.53;;;10.17;;
71253;SDS011;59019;47.638;18.966;2023-05-24T04:22:51;21.92;;;12.13;;
71253;SDS011;59019;47.638;18.966;2023-05-24T04:25:18;20.75;;;10.98;;
71253;SDS011;59019;47.638;18.966;2023-05-24T04:27:43;18.60;;;10.80;;
71253;SDS011;59019;47.638;18.966;2023-05-24T04:30:12;17.13;;;10.50;;
71253;SDS011;59019;47.638;18.966;2023-05-24T04:32:38;21.27;;;10.90;;
71253;SDS011;59019;47.638;18.966;2023-05-24T04:35:04;16.73;;;10.25;;
71253;SDS011;59019;47.638;18.966;2023-05-24T04:37:31;16.90;;;10.68;;
71253;SDS011;59019;47.638;18.966;2023-05-24T04:39:57;15.95;;;10.13;;
71253;SDS011;59019;47.638;18.966;2023-05-24T04:42:23;17.77;;;10.67;;
71253;SDS011;59019;47.638;18.966;2023-05-24T04:44:48;18.83;;;10.70;;
71253;SDS011;59019;47.638;18.966;2023-05-24T04:47:14;21.88;;;10.45;;
71253;SDS011;59019;47.638;18.966;2023-05-24T04:49:40;19.27;;;10.45;;
71253;SDS011;59019;47.638;18.966;2023-05-24T04:52:05;18.73;;;10.43;;
71253;SDS011;59019;47.638;18.966;2023-05-24T04:54:31;17.07;;;10.07;;
71253;SDS011;59019;47.638;18.966;2023-05-24T04:56:57;17.95;;;10.43;;
71253;SDS011;59019;47.638;18.966;2023-05-24T04:59:23;16.90;;;10.50;;
71253;SDS011;59019;47.638;18.966;2023-05-24T05:01:48;20.38;;;10.95;;
71253;SDS011;59019;47.638;18.966;2023-05-24T05:04:14;19.87;;;10.70;;
71253;SDS011;59019;47.638;18.966;2023-05-24T05:06:40;20.40;;;11.63;;
71253;SDS011;59019;47.638;18.966;2023-05-24T05:09:08;17.83;;;11.10;;
71253;SDS011;59019;47.638;18.966;2023-05-24T05:11:37;18.00;;;11.40;;
71253;SDS011;59019;47.638;18.966;2023-05-24T05:14:03;20.58;;;11.95;;
71253;SDS011;59019;47.638;18.966;2023-05-24T05:16:28;18.08;;;10.95;;
71253;SDS011;59019;47.638;18.966;2023-05-24T05:18:54;21.67;;;11.83;;
71253;SDS011;59019;47.638;18.966;2023-05-24T05:21:20;18.88;;;11.13;;
71253;SDS011;59019;47.638;18.966;2023-05-24T05:23:45;14.98;;;10.05;;
71253;SDS011;59019;47.638;18.966;2023-05-24T05:26:11;17.37;;;9.43;;
71253;SDS011;59019;47.638;18.966;2023-05-24T05:28:36;16.80;;;10.13;;
71253;SDS011;59019;47.638;18.966;2023-05-24T05:31:02;14.00;;;9.13;;
71253;SDS011;59019;47.638;18.966;2023-05-24T05:33:29;14.70;;;9.50;;
71253;SDS011;59019;47.638;18.966;2023-05-24T05:35:55;15.52;;;8.85;;
71253;SDS011;59019;47.638;18.966;2023-05-24T05:38:21;13.17;;;8.73;;
71253;SDS011;59019;47.638;18.966;2023-05-24T05:40:46;13.95;;;9.27;;
71253;SDS011;59019;47.638;18.966;2023-05-24T05:43:12;12.43;;;8.73;;
71253;SDS011;59019;47.638;18.966;2023-05-24T05:45:38;12.02;;;8.55;;
71253;SDS011;59019;47.638;18.966;2023-05-24T05:48:04;14.20;;;9.30;;
71253;SDS011;59019;47.638;18.966;2023-05-24T05:50:30;13.32;;;8.80;;
71253;SDS011;59019;47.638;18.966;2023-05-24T05:52:55;14.43;;;9.57;;
71253;SDS011;59019;47.638;18.966;2023-05-24T05:55:22;14.00;;;9.15;;
71253;SDS011;59019;47.638;18.966;2023-05-24T05:57:48;13.53;;;8.43;;
71253;SDS011;59019;47.638;18.966;2023-05-24T06:00:14;13.05;;;8.88;;
71253;SDS011;59019;47.638;18.966;2023-05-24T06:02:40;12.50;;;8.38;;
71253;SDS011;59019;47.638;18.966;2023-05-24T06:05:06;13.33;;;8.40;;
71253;SDS011;59019;47.638;18.966;2023-05-24T06:07:31;12.77;;;8.48;;
71253;SDS011;59019;47.638;18.966;2023-05-24T06:09:57;10.57;;;7.70;;
71253;SDS011;59019;47.638;18.966;2023-05-24T06:12:23;12.98;;;8.63;;
71253;SDS011;59019;47.638;18.966;2023-05-24T06:14:49;13.93;;;8.77;;
71253;SDS011;59019;47.638;18.966;2023-05-24T06:17:16;12.73;;;8.20;;
71253;SDS011;59019;47.638;18.966;2023-05-24T06:19:43;12.98;;;8.20;;
71253;SDS011;59019;47.638;18.966;2023-05-24T06:22:08;12.32;;;8.30;;
71253;SDS011;59019;47.638;18.966;2023-05-24T06:24:34;13.10;;;8.27;;
71253;SDS011;59019;47.638;18.966;2023-05-24T06:27:00;13.70;;;8.20;;
71253;SDS011;59019;47.638;18.966;2023-05-24T06:29:26;11.20;;;7.93;;
71253;SDS011;59019;47.638;18.966;2023-05-24T06:31:51;13.70;;;8.40;;
71253;SDS011;59019;47.638;18.966;2023-05-24T06:34:17;10.23;;;7.30;;
71253;SDS011;59019;47.638;18.966;2023-05-24T06:36:45;12.50;;;8.00;;
71253;SDS011;59019;47.638;18.966;2023-05-24T06:39:12;12.48;;;7.93;;
71253;SDS011;59019;47.638;18.966;2023-05-24T06:41:38;11.90;;;8.00;;
71253;SDS011;59019;47.638;18.966;2023-05-24T06:44:04;12.17;;;7.97;;
71253;SDS011;59019;47.638;18.966;2023-05-24T06:46:30;11.52;;;7.68;;
71253;SDS011;59019;47.638;18.966;2023-05-24T06:48:56;12.10;;;8.20;;
71253;SDS011;59019;47.638;18.966;2023-05-24T06:51:22;11.05;;;8.10;;
71253;SDS011;59019;47.638;18.966;2023-05-24T06:53:47;11.75;;;8.20;;
71253;SDS011;59019;47.638;18.966;2023-05-24T06:56:13;10.80;;;7.80;;
71253;SDS011;59019;47.638;18.966;2023-05-24T06:58:39;13.55;;;9.02;;
71253;SDS011;59019;47.638;18.966;2023-05-24T07:01:05;12.60;;;8.53;;
71253;SDS011;59019;47.638;18.966;2023-05-24T07:03:31;14.43;;;8.27;;
71253;SDS011;59019;47.638;18.966;2023-05-24T07:05:57;33.10;;;18.07;;
71253;SDS011;59019;47.638;18.966;2023-05-24T07:08:25;22.80;;;13.32;;
71253;SDS011;59019;47.638;18.966;2023-05-24T07:10:52;14.43;;;8.10;;
71253;SDS011;59019;47.638;18.966;2023-05-24T07:13:18;13.32;;;8.80;;
71253;SDS011;59019;47.638;18.966;2023-05-24T07:15:44;12.20;;;8.33;;
71253;SDS011;59019;47.638;18.966;2023-05-24T07:18:11;13.77;;;9.52;;
71253;SDS011;59019;47.638;18.966;2023-05-24T07:20:37;12.85;;;8.70;;
71253;SDS011;59019;47.638;18.966;2023-05-24T07:23:02;14.50;;;10.17;;
71253;SDS011;59019;47.638;18.966;2023-05-24T07:25:28;12.70;;;9.30;;
71253;SDS011;59019;47.638;18.966;2023-05-24T07:27:54;16.55;;;10.65;;
71253;SDS011;59019;47.638;18.966;2023-05-24T07:30:20;15.47;;;9.57;;
71253;SDS011;59019;47.638;18.966;2023-05-24T07:32:45;12.35;;;8.90;;
71253;SDS011;59019;47.638;18.966;2023-05-24T07:35:11;12.70;;;8.70;;
71253;SDS011;59019;47.638;18.966;2023-05-24T07:37:38;11.32;;;8.55;;
71253;SDS011;59019;47.638;18.966;2023-05-24T07:40:04;14.88;;;9.82;;
71253;SDS011;59019;47.638;18.966;2023-05-24T07:42:34;13.77;;;9.40;;
71253;SDS011;59019;47.638;18.966;2023-05-24T07:45:00;12.27;;;8.90;;
71253;SDS011;59019;47.638;18.966;2023-05-24T07:47:25;12.00;;;9.10;;
71253;SDS011;59019;47.638;18.966;2023-05-24T07:49:51;11.90;;;8.80;;
71253;SDS011;59019;47.638;18.966;2023-05-24T07:52:17;13.25;;;9.63;;
71253;SDS011;59019;47.638;18.966;2023-05-24T07:54:42;16.70;;;10.27;;
71253;SDS011;59019;47.638;18.966;2023-05-24T07:57:08;12.33;;;8.90;;
71253;SDS011;59019;47.638;18.966;2023-05-24T07:59:33;12.63;;;8.87;;
71253;SDS011;59019;47.638;18.966;2023-05-24T08:01:59;13.65;;;8.70;;
71253;SDS011;59019;47.638;18.966;2023-05-24T08:04:29;17.92;;;10.57;;
71253;SDS011;59019;47.638;18.966;2023-05-24T08:06:56;14.67;;;9.90;;
71253;SDS011;59019;47.638;18.966;2023-05-24T08:09:22;14.75;;;9.60;;
71253;SDS011;59019;47.638;18.966;2023-05-24T08:11:48;17.52;;;10.32;;
71253;SDS011;59019;47.638;18.966;2023-05-24T08:14:13;15.07;;;9.80;;
71253;SDS011;59019;47.638;18.966;2023-05-24T08:16:39;14.33;;;9.67;;
71253;SDS011;59019;47.638;18.966;2023-05-24T08:19:04;12.27;;;8.85;;
71253;SDS011;59019;47.638;18.966;2023-05-24T08:21:30;13.68;;;8.95;;
71253;SDS011;59019;47.638;18.966;2023-05-24T08:23:57;14.45;;;9.32;;
71253;SDS011;59019;47.638;18.966;2023-05-24T08:26:24;11.98;;;8.68;;
71253;SDS011;59019;47.638;18.966;2023-05-24T08:28:50;13.15;;;8.13;;
71253;SDS011;59019;47.638;18.966;2023-05-24T08:31:16;17.88;;;10.55;;
71253;SDS011;59019;47.638;18.966;2023-05-24T08:33:43;12.57;;;8.57;;
71253;SDS011;59019;47.638;18.966;2023-05-24T08:36:08;12.40;;;8.33;;
71253;SDS011;59019;47.638;18.966;2023-05-24T08:38:34;11.45;;;7.90;;
71253;SDS011;59019;47.638;18.966;2023-05-24T08:41:01;11.33;;;7.53;;
71253;SDS011;59019;47.638;18.966;2023-05-24T08:43:30;13.45;;;8.60;;
71253;SDS011;59019;47.638;18.966;2023-05-24T08:45:56;10.90;;;7.87;;
71253;SDS011;59019;47.638;18.966;2023-05-24T08:48:23;12.32;;;7.82;;
71253;SDS011;59019;47.638;18.966;2023-05-24T08:50:49;9.95;;;7.55;;
71253;SDS011;59019;47.638;18.966;2023-05-24T08:53:15;13.65;;;7.10;;
71253;SDS011;59019;47.638;18.966;2023-05-24T08:55:43;12.90;;;7.60;;
71253;SDS011;59019;47.638;18.966;2023-05-24T08:58:09;13.23;;;7.60;;
71253;SDS011;59019;47.638;18.966;2023-05-24T09:00:35;10.63;;;7.45;;
71253;SDS011;59019;47.638;18.966;2023-05-24T09:03:00;10.30;;;7.37;;
71253;SDS011;59019;47.638;18.966;2023-05-24T09:05:27;11.60;;;6.70;;
71253;SDS011;59019;47.638;18.966;2023-05-24T09:07:54;9.77;;;7.28;;
71253;SDS011;59019;47.638;18.966;2023-05-24T09:10:20;10.30;;;7.05;;
71253;SDS011;59019;47.638;18.966;2023-05-24T09:12:50;9.98;;;6.68;;
71253;SDS011;59019;47.638;18.966;2023-05-24T09:15:18;9.70;;;6.97;;
71253;SDS011;59019;47.638;18.966;2023-05-24T09:17:43;11.38;;;7.28;;
71253;SDS011;59019;47.638;18.966;2023-05-24T09:20:10;11.07;;;6.77;;
71253;SDS011;59019;47.638;18.966;2023-05-24T09:22:37;9.63;;;6.43;;
71253;SDS011;59019;47.638;18.966;2023-05-24T09:25:05;11.00;;;6.72;;
71253;SDS011;59019;47.638;18.966;2023-05-24T09:27:32;9.40;;;5.85;;
71253;SDS011;59019;47.638;18.966;2023-05-24T09:30:00;10.25;;;6.50;;
71253;SDS011;59019;47.638;18.966;2023-05-24T09:32:29;8.33;;;5.97;;
71253;SDS011;59019;47.638;18.966;2023-05-24T09:34:56;8.55;;;5.90;;
71253;SDS011;59019;47.638;18.966;2023-05-24T09:37:23;7.78;;;6.03;;
71253;SDS011;59019;47.638;18.966;2023-05-24T09:39:51;9.02;;;6.20;;
71253;SDS011;59019;47.638;18.966;2023-05-24T09:42:18;9.63;;;6.38;;
71253;SDS011;59019;47.638;18.966;2023-05-24T09:45:09;7.80;;;5.87;;
71253;SDS011;59019;47.638;18.966;2023-05-24T09:47:36;6.55;;;5.07;;
71253;SDS011;59019;47.638;18.966;2023-05-24T09:50:03;8.32;;;5.60;;
71253;SDS011;59019;47.638;18.966;2023-05-24T09:52:31;8.00;;;5.68;;
71253;SDS011;59019;47.638;18.966;2023-05-24T09:55:09;7.97;;;4.93;;
71253;SDS011;59019;47.638;18.966;2023-05-24T09:57:51;8.33;;;5.27;;
71253;SDS011;59019;47.638;18.966;2023-05-24T10:00:27;7.53;;;5.82;;
71253;SDS011;59019;47.638;18.966;2023-05-24T10:02:59;8.23;;;5.80;;
71253;SDS011;59019;47.638;18.966;2023-05-24T10:05:27;7.77;;;5.60;;
71253;SDS011;59019;47.638;18.966;2023-05-24T10:07:54;7.07;;;5.18;;
71253;SDS011;59019;47.638;18.966;2023-05-24T10:10:20;6.65;;;4.90;;
71253;SDS011;59019;47.638;18.966;2023-05-24T10:12:46;8.15;;;5.38;;
71253;SDS011;59019;47.638;18.966;2023-05-24T10:15:12;7.90;;;5.60;;
71253;SDS011;59019;47.638;18.966;2023-05-24T10:17:38;9.37;;;5.40;;
71253;SDS011;59019;47.638;18.966;2023-05-24T10:20:04;8.43;;;5.27;;
71253;SDS011;59019;47.638;18.966;2023-05-24T10:22:31;7.72;;;5.53;;
71253;SDS011;59019;47.638;18.966;2023-05-24T10:25:01;9.13;;;5.47;;
71253;SDS011;59019;47.638;18.966;2023-05-24T10:27:30;7.88;;;5.38;;
71253;SDS011;59019;47.638;18.966;2023-05-24T10:30:02;8.57;;;5.70;;
71253;SDS011;59019;47.638;18.966;2023-05-24T10:32:34;7.72;;;5.13;;
71253;SDS011;59019;47.638;18.966;2023-05-24T10:35:03;10.63;;;5.78;;
71253;SDS011;59019;47.638;18.966;2023-05-24T10:37:30;7.72;;;5.63;;
71253;SDS011;59019;47.638;18.966;2023-05-24T10:39:56;7.28;;;5.38;;
71253;SDS011;59019;47.638;18.966;2023-05-24T10:42:23;8.10;;;5.85;;
71253;SDS011;59019;47.638;18.966;2023-05-24T10:44:49;10.13;;;6.15;;
71253;SDS011;59019;47.638;18.966;2023-05-24T10:47:15;8.38;;;5.85;;
71253;SDS011;59019;47.638;18.966;2023-05-24T10:52:12;8.88;;;5.50;;
71253;SDS011;59019;47.638;18.966;2023-05-24T10:54:38;10.18;;;5.10;;
71253;SDS011;59019;47.638;18.966;2023-05-24T10:57:05;7.93;;;5.43;;
71253;SDS011;59019;47.638;18.966;2023-05-24T11:02:07;8.43;;;5.32;;
71253;SDS011;59019;47.638;18.966;2023-05-24T11:04:39;8.32;;;4.55;;
71253;SDS011;59019;47.638;18.966;2023-05-24T11:07:10;8.02;;;5.07;;
71253;SDS011;59019;47.638;18.966;2023-05-24T11:09:38;7.90;;;5.37;;
71253;SDS011;59019;47.638;18.966;2023-05-24T11:12:15;7.13;;;5.25;;
71253;SDS011;59019;47.638;18.966;2023-05-24T11:14:48;8.32;;;4.97;;
71253;SDS011;59019;47.638;18.966;2023-05-24T11:17:17;7.43;;;5.50;;
71253;SDS011;59019;47.638;18.966;2023-05-24T11:19:45;6.82;;;5.15;;
71253;SDS011;59019;47.638;18.966;2023-05-24T11:22:13;7.87;;;4.90;;
71253;SDS011;59019;47.638;18.966;2023-05-24T11:24:39;8.52;;;5.00;;
71253;SDS011;59019;47.638;18.966;2023-05-24T11:27:05;9.38;;;5.10;;
71253;SDS011;59019;47.638;18.966;2023-05-24T11:29:31;8.30;;;5.00;;
71253;SDS011;59019;47.638;18.966;2023-05-24T11:31:58;7.18;;;4.95;;
71253;SDS011;59019;47.638;18.966;2023-05-24T11:34:31;6.82;;;4.85;;
71253;SDS011;59019;47.638;18.966;2023-05-24T11:36:58;8.18;;;4.90;;
71253;SDS011;59019;47.638;18.966;2023-05-24T11:39:29;7.07;;;4.80;;
71253;SDS011;59019;47.638;18.966;2023-05-24T11:41:57;7.15;;;4.95;;
71253;SDS011;59019;47.638;18.966;2023-05-24T11:44:23;7.50;;;4.70;;
71253;SDS011;59019;47.638;18.966;2023-05-24T11:46:55;7.45;;;4.90;;
71253;SDS011;59019;47.638;18.966;2023-05-24T11:49:24;7.35;;;5.00;;
71253;SDS011;59019;47.638;18.966;2023-05-24T11:51:51;7.67;;;4.80;;
71253;SDS011;59019;47.638;18.966;2023-05-24T11:54:18;7.35;;;4.65;;
71253;SDS011;59019;47.638;18.966;2023-05-24T11:56:45;6.15;;;4.55;;
71253;SDS011;59019;47.638;18.966;2023-05-24T11:59:15;6.88;;;4.50;;
71253;SDS011;59019;47.638;18.966;2023-05-24T12:01:41;6.47;;;4.50;;
71253;SDS011;59019;47.638;18.966;2023-05-24T12:04:07;6.40;;;4.57;;
71253;SDS011;59019;47.638;18.966;2023-05-24T12:06:42;7.00;;;4.65;;
71253;SDS011;59019;47.638;18.966;2023-05-24T12:09:09;7.30;;;4.65;;
71253;SDS011;59019;47.638;18.966;2023-05-24T12:11:41;7.72;;;4.75;;
71253;SDS011;59019;47.638;18.966;2023-05-24T12:14:14;6.45;;;4.60;;
71253;SDS011;59019;47.638;18.966;2023-05-24T12:16:42;7.70;;;4.60;;
71253;SDS011;59019;47.638;18.966;2023-05-24T12:19:12;7.18;;;4.60;;
71253;SDS011;59019;47.638;18.966;2023-05-24T12:21:41;5.28;;;3.72;;
71253;SDS011;59019;47.638;18.966;2023-05-24T12:24:07;7.23;;;4.73;;
71253;SDS011;59019;47.638;18.966;2023-05-24T12:26:40;7.93;;;4.65;;
71253;SDS011;59019;47.638;18.966;2023-05-24T12:29:07;7.38;;;4.22;;
71253;SDS011;59019;47.638;18.966;2023-05-24T12:31:34;6.57;;;4.38;;
71253;SDS011;59019;47.638;18.966;2023-05-24T12:33:59;8.67;;;4.70;;
71253;SDS011;59019;47.638;18.966;2023-05-24T12:36:27;6.65;;;4.50;;
71253;SDS011;59019;47.638;18.966;2023-05-24T12:38:55;6.20;;;4.40;;
71253;SDS011;59019;47.638;18.966;2023-05-24T12:41:21;6.40;;;4.60;;
71253;SDS011;59019;47.638;18.966;2023-05-24T12:43:47;7.60;;;4.63;;
71253;SDS011;59019;47.638;18.966;2023-05-24T12:46:16;5.95;;;4.10;;
71253;SDS011;59019;47.638;18.966;2023-05-24T12:48:42;6.83;;;4.07;;
71253;SDS011;59019;47.638;18.966;2023-05-24T12:51:09;8.02;;;4.20;;
71253;SDS011;59019;47.638;18.966;2023-05-24T12:53:35;6.53;;;4.13;;
71253;SDS011;59019;47.638;18.966;2023-05-24T12:56:02;6.30;;;4.10;;
71253;SDS011;59019;47.638;18.966;2023-05-24T12:58:27;6.47;;;4.40;;
71253;SDS011;59019;47.638;18.966;2023-05-24T13:00:53;6.07;;;4.27;;
71253;SDS011;59019;47.638;18.966;2023-05-24T13:03:19;7.17;;;4.20;;
71253;SDS011;59019;47.638;18.966;2023-05-24T13:05:44;6.32;;;4.28;;
71253;SDS011;59019;47.638;18.966;2023-05-24T13:08:11;6.33;;;4.00;;
71253;SDS011;59019;47.638;18.966;2023-05-24T13:10:37;7.07;;;4.10;;
71253;SDS011;59019;47.638;18.966;2023-05-24T13:13:03;5.95;;;3.78;;
71253;SDS011;59019;47.638;18.966;2023-05-24T13:15:29;6.80;;;4.25;;
71253;SDS011;59019;47.638;18.966;2023-05-24T13:17:54;6.97;;;3.97;;
71253;SDS011;59019;47.638;18.966;2023-05-24T13:20:20;7.03;;;4.13;;
71253;SDS011;59019;47.638;18.966;2023-05-24T13:22:46;6.03;;;4.10;;
71253;SDS011;59019;47.638;18.966;2023-05-24T13:25:13;6.57;;;4.57;;
71253;SDS011;59019;47.638;18.966;2023-05-24T13:27:39;7.27;;;4.00;;
71253;SDS011;59019;47.638;18.966;2023-05-24T13:30:05;6.35;;;4.00;;
71253;SDS011;59019;47.638;18.966;2023-05-24T13:32:31;6.93;;;3.92;;
71253;SDS011;59019;47.638;18.966;2023-05-24T13:34:57;5.80;;;4.10;;
71253;SDS011;59019;47.638;18.966;2023-05-24T13:37:23;5.90;;;4.10;;
71253;SDS011;59019;47.638;18.966;2023-05-24T13:39:48;5.67;;;3.80;;
71253;SDS011;59019;47.638;18.966;2023-05-24T13:42:14;5.47;;;3.88;;
71253;SDS011;59019;47.638;18.966;2023-05-24T13:44:40;6.50;;;4.03;;
71253;SDS011;59019;47.638;18.966;2023-05-24T13:47:05;5.67;;;3.50;;
71253;SDS011;59019;47.638;18.966;2023-05-24T13:49:32;6.53;;;3.67;;
71253;SDS011;59019;47.638;18.966;2023-05-24T13:51:58;5.63;;;3.80;;
71253;SDS011;59019;47.638;18.966;2023-05-24T13:54:24;6.33;;;4.13;;
71253;SDS011;59019;47.638;18.966;2023-05-24T13:56:50;8.02;;;4.10;;
71253;SDS011;59019;47.638;18.966;2023-05-24T13:59:15;5.23;;;3.70;;
71253;SDS011;59019;47.638;18.966;2023-05-24T14:01:41;5.60;;;3.70;;
71253;SDS011;59019;47.638;18.966;2023-05-24T14:04:07;7.88;;;3.97;;
71253;SDS011;59019;47.638;18.966;2023-05-24T14:06:33;6.17;;;3.70;;
71253;SDS011;59019;47.638;18.966;2023-05-24T14:09:02;7.38;;;3.67;;
71253;SDS011;59019;47.638;18.966;2023-05-24T14:11:28;5.80;;;3.10;;
71253;SDS011;59019;47.638;18.966;2023-05-24T14:13:55;4.95;;;3.63;;
71253;SDS011;59019;47.638;18.966;2023-05-24T14:16:21;7.35;;;3.67;;
71253;SDS011;59019;47.638;18.966;2023-05-24T14:18:46;7.23;;;3.37;;
71253;SDS011;59019;47.638;18.966;2023-05-24T14:21:14;5.75;;;3.45;;
71253;SDS011;59019;47.638;18.966;2023-05-24T14:23:40;5.25;;;3.35;;
71253;SDS011;59019;47.638;18.966;2023-05-24T14:26:06;5.03;;;3.70;;
71253;SDS011;59019;47.638;18.966;2023-05-24T14:28:31;5.93;;;3.58;;
71253;SDS011;59019;47.638;18.966;2023-05-24T14:30:57;5.25;;;3.28;;
71253;SDS011;59019;47.638;18.966;2023-05-24T14:33:22;5.50;;;3.50;;
71253;SDS011;59019;47.638;18.966;2023-05-24T14:35:48;6.30;;;3.37;;